sensor_id;sensor_type;location;lat;lon;timestamp;pressure;altitude;pressure_sealevel;temperature
61595;BMP280;47397;48.194;11.632;2023-04-03T00:00:35;96500.06;;;3.05
61595;BMP280;47397;48.194;11.632;2023-04-03T00:01:35;96503.34;;;3.00
61595;BMP280;47397;48.194;11.632;2023-04-03T00:02:36;96501.72;;;3.03
61595;BMP280;47397;48.194;11.632;2023-04-03T00:03:37;96500.94;;;3.07
61595;BMP280;47397;48.194;11.632;2023-04-03T00:04:38;96500.72;;;2.95
61595;BMP280;47397;48.194;11.632;2023-04-03T00:05:38;96501.56;;;2.94
61595;BMP280;47397;48.194;11.632;2023-04-03T00:06:38;96501.84;;;3.12
61595;BMP280;47397;48.194;11.632;2023-04-03T00:07:39;96498.31;;;3.00
61595;BMP280;47397;48.194;11.632;2023-04-03T00:08:40;96501.81;;;3.09
61595;BMP280;47397;48.194;11.632;2023-04-03T00:09:40;96499.91;;;2.96
61595;BMP280;47397;48.194;11.632;2023-04-03T00:10:41;96500.13;;;3.08
61595;BMP280;47397;48.194;11.632;2023-04-03T00:11:41;96501.50;;;2.91
61595;BMP280;47397;48.194;11.632;2023-04-03T00:12:42;96503.84;;;2.79
61595;BMP280;47397;48.194;11.632;2023-04-03T00:13:42;96501.28;;;2.76
61595;BMP280;47397;48.194;11.632;2023-04-03T00:14:43;96498.06;;;2.85
61595;BMP280;47397;48.194;11.632;2023-04-03T00:15:43;96500.63;;;2.89
61595;BMP280;47397;48.194;11.632;2023-04-03T00:16:44;96501.72;;;3.03
61595;BMP280;47397;48.194;11.632;2023-04-03T00:17:44;96501.03;;;3.13
61595;BMP280;47397;48.194;11.632;2023-04-03T00:18:46;96499.28;;;3.09
61595;BMP280;47397;48.194;11.632;2023-04-03T00:19:46;96501.03;;;3.15
61595;BMP280;47397;48.194;11.632;2023-04-03T00:20:47;96505.25;;;3.16
61595;BMP280;47397;48.194;11.632;2023-04-03T00:21:47;96500.25;;;3.19
61595;BMP280;47397;48.194;11.632;2023-04-03T00:22:48;96504.44;;;3.19
61595;BMP280;47397;48.194;11.632;2023-04-03T00:23:48;96504.34;;;3.12
61595;BMP280;47397;48.194;11.632;2023-04-03T00:24:49;96499.34;;;3.12
61595;BMP280;47397;48.194;11.632;2023-04-03T00:25:49;96501.16;;;3.24
61595;BMP280;47397;48.194;11.632;2023-04-03T00:26:50;96505.94;;;3.06
61595;BMP280;47397;48.194;11.632;2023-04-03T00:27:50;96496.94;;;3.22
61595;BMP280;47397;48.194;11.632;2023-04-03T00:28:51;96496.91;;;3.19
61595;BMP280;47397;48.194;11.632;2023-04-03T00:29:51;96499.53;;;3.28
61595;BMP280;47397;48.194;11.632;2023-04-03T00:30:52;96504.19;;;3.00
61595;BMP280;47397;48.194;11.632;2023-04-03T00:31:52;96501.56;;;2.94
61595;BMP280;47397;48.194;11.632;2023-04-03T00:32:53;96496.69;;;3.03
61595;BMP280;47397;48.194;11.632;2023-04-03T00:33:55;96500.94;;;3.07
61595;BMP280;47397;48.194;11.632;2023-04-03T00:34:55;96503.16;;;2.89
61595;BMP280;47397;48.194;11.632;2023-04-03T00:35:55;96501.75;;;3.06
61595;BMP280;47397;48.194;11.632;2023-04-03T00:36:57;96505.91;;;3.04
61595;BMP280;47397;48.194;11.632;2023-04-03T00:37:57;96498.38;;;3.03
61595;BMP280;47397;48.194;11.632;2023-04-03T00:38:58;96506.81;;;3.09
61595;BMP280;47397;48.194;11.632;2023-04-03T00:39:58;96505.25;;;3.18
61595;BMP280;47397;48.194;11.632;2023-04-03T00:40:59;96498.59;;;3.20
61595;BMP280;47397;48.194;11.632;2023-04-03T00:41:59;96505.97;;;3.07
61595;BMP280;47397;48.194;11.632;2023-04-03T00:42:59;96502.00;;;3.23
61595;BMP280;47397;48.194;11.632;2023-04-03T00:44:00;96500.31;;;3.24
61595;BMP280;47397;48.194;11.632;2023-04-03T00:46:40;96503.56;;;3.15
61595;BMP280;47397;48.194;11.632;2023-04-03T00:47:41;96504.91;;;2.95
61595;BMP280;47397;48.194;11.632;2023-04-03T00:48:44;96507.75;;;3.16
61595;BMP280;47397;48.194;11.632;2023-04-03T00:49:46;96500.97;;;3.09
61595;BMP280;47397;48.194;11.632;2023-04-03T00:50:47;96497.69;;;3.14
61595;BMP280;47397;48.194;11.632;2023-04-03T00:51:48;96504.34;;;3.11
61595;BMP280;47397;48.194;11.632;2023-04-03T00:52:48;96496.13;;;3.23
61595;BMP280;47397;48.194;11.632;2023-04-03T00:53:51;96500.13;;;3.08
61595;BMP280;47397;48.194;11.632;2023-04-03T00:54:58;96497.66;;;3.13
61595;BMP280;47397;48.194;11.632;2023-04-03T00:56:00;96493.53;;;3.17
61595;BMP280;47397;48.194;11.632;2023-04-03T00:57:01;96499.75;;;2.86
61595;BMP280;47397;48.194;11.632;2023-04-03T00:58:02;96502.38;;;2.93
61595;BMP280;47397;48.194;11.632;2023-04-03T00:59:04;96495.00;;;3.02
61595;BMP280;47397;48.194;11.632;2023-04-03T01:00:09;96501.34;;;2.80
61595;BMP280;47397;48.194;11.632;2023-04-03T01:01:12;96502.38;;;2.93
61595;BMP280;47397;48.194;11.632;2023-04-03T01:02:16;96498.03;;;2.83
61595;BMP280;47397;48.194;11.632;2023-04-03T01:03:16;96495.72;;;2.97
61595;BMP280;47397;48.194;11.632;2023-04-03T01:04:27;96494.88;;;2.96
61595;BMP280;47397;48.194;11.632;2023-04-03T01:05:29;96500.50;;;2.80
61595;BMP280;47397;48.194;11.632;2023-04-03T01:06:32;96496.31;;;2.79
61595;BMP280;47397;48.194;11.632;2023-04-03T01:07:34;96501.50;;;2.91
61595;BMP280;47397;48.194;11.632;2023-04-03T01:08:35;96504.03;;;2.91
61595;BMP280;47397;48.194;11.632;2023-04-03T01:09:36;96495.84;;;3.03
61595;BMP280;47397;48.194;11.632;2023-04-03T01:10:36;96502.53;;;3.02
61595;BMP280;47397;48.194;11.632;2023-04-03T01:11:37;96498.25;;;2.97
61595;BMP280;47397;48.194;11.632;2023-04-03T01:12:39;96507.06;;;2.72
61595;BMP280;47397;48.194;11.632;2023-04-03T01:13:39;96496.47;;;2.90
61595;BMP280;47397;48.194;11.632;2023-04-03T01:14:40;96498.91;;;2.85
61595;BMP280;47397;48.194;11.632;2023-04-03T01:15:40;96504.84;;;2.90
61595;BMP280;47397;48.194;11.632;2023-04-03T01:16:41;96500.69;;;2.92
61595;BMP280;47397;48.194;11.632;2023-04-03T01:17:43;96500.75;;;2.97
61595;BMP280;47397;48.194;11.632;2023-04-03T01:18:44;96506.34;;;2.79
61595;BMP280;47397;48.194;11.632;2023-04-03T01:19:52;96507.38;;;2.92
61595;BMP280;47397;48.194;11.632;2023-04-03T01:22:26;96498.16;;;2.91
61595;BMP280;47397;48.194;11.632;2023-04-03T01:23:39;96507.50;;;2.98
61595;BMP280;47397;48.194;11.632;2023-04-03T01:24:42;96503.13;;;2.88
61595;BMP280;47397;48.194;11.632;2023-04-03T01:25:44;96504.78;;;2.86
61595;BMP280;47397;48.194;11.632;2023-04-03T01:26:44;96504.78;;;2.86
61595;BMP280;47397;48.194;11.632;2023-04-03T01:27:45;96507.44;;;2.96
61595;BMP280;47397;48.194;11.632;2023-04-03T01:28:46;96509.91;;;2.93
61595;BMP280;47397;48.194;11.632;2023-04-03T01:29:46;96512.59;;;3.02
61595;BMP280;47397;48.194;11.632;2023-04-03T01:30:50;96504.91;;;2.95
61595;BMP280;47397;48.194;11.632;2023-04-03T01:31:56;96504.06;;;2.94
61595;BMP280;47397;48.194;11.632;2023-04-03T01:32:56;96509.00;;;2.88
61595;BMP280;47397;48.194;11.632;2023-04-03T01:33:57;96508.09;;;2.85
61595;BMP280;47397;48.194;11.632;2023-04-03T01:34:57;96504.94;;;2.96
61595;BMP280;47397;48.194;11.632;2023-04-03T01:35:58;96513.06;;;2.81
61595;BMP280;47397;48.194;11.632;2023-04-03T01:36:58;96508.19;;;2.91
61595;BMP280;47397;48.194;11.632;2023-04-03T01:37:59;96509.69;;;2.78
61595;BMP280;47397;48.194;11.632;2023-04-03T01:39:00;96510.84;;;2.98
61595;BMP280;47397;48.194;11.632;2023-04-03T01:40:00;96514.75;;;2.81
61595;BMP280;47397;48.194;11.632;2023-04-03T01:41:01;96511.59;;;2.94
61595;BMP280;47397;48.194;11.632;2023-04-03T01:42:01;96506.50;;;2.90
61595;BMP280;47397;48.194;11.632;2023-04-03T01:43:01;96512.34;;;2.89
61595;BMP280;47397;48.194;11.632;2023-04-03T01:44:02;96513.22;;;2.91
61595;BMP280;47397;48.194;11.632;2023-04-03T01:45:03;96513.38;;;3.00
61595;BMP280;47397;48.194;11.632;2023-04-03T01:46:04;96511.56;;;2.91
61595;BMP280;47397;48.194;11.632;2023-04-03T01:47:06;96505.91;;;3.04
61595;BMP280;47397;48.194;11.632;2023-04-03T01:48:07;96509.88;;;2.90
61595;BMP280;47397;48.194;11.632;2023-04-03T01:49:07;96511.72;;;3.00
61595;BMP280;47397;48.194;11.632;2023-04-03T01:50:08;96513.94;;;2.83
61595;BMP280;47397;48.194;11.632;2023-04-03T01:51:09;96513.88;;;2.79
61595;BMP280;47397;48.194;11.632;2023-04-03T01:52:10;96511.50;;;2.88
61595;BMP280;47397;48.194;11.632;2023-04-03T01:53:10;96506.63;;;2.97
61595;BMP280;47397;48.194;11.632;2023-04-03T01:54:11;96507.56;;;3.02
61595;BMP280;47397;48.194;11.632;2023-04-03T01:55:11;96509.22;;;3.00
61595;BMP280;47397;48.194;11.632;2023-04-03T01:56:11;96512.38;;;2.90
61595;BMP280;47397;48.194;11.632;2023-04-03T01:57:12;96508.00;;;2.78
61595;BMP280;47397;48.194;11.632;2023-04-03T01:58:12;96518.16;;;2.86
61595;BMP280;47397;48.194;11.632;2023-04-03T01:59:13;96510.75;;;2.94
61595;BMP280;47397;48.194;11.632;2023-04-03T02:00:14;96510.72;;;2.91
61595;BMP280;47397;48.194;11.632;2023-04-03T02:01:14;96509.00;;;2.88
61595;BMP280;47397;48.194;11.632;2023-04-03T02:02:16;96510.63;;;2.86
61595;BMP280;47397;48.194;11.632;2023-04-03T02:03:17;96504.84;;;2.90
61595;BMP280;47397;48.194;11.632;2023-04-03T02:04:17;96500.00;;;3.01
61595;BMP280;47397;48.194;11.632;2023-04-03T02:05:18;96502.50;;;3.01
61595;BMP280;47397;48.194;11.632;2023-04-03T02:06:18;96504.16;;;2.99
61595;BMP280;47397;48.194;11.632;2023-04-03T02:07:19;96502.41;;;2.95
61595;BMP280;47397;48.194;11.632;2023-04-03T02:08:19;96506.66;;;2.99
61595;BMP280;47397;48.194;11.632;2023-04-03T02:09:19;96509.88;;;2.92
61595;BMP280;47397;48.194;11.632;2023-04-03T02:10:20;96513.06;;;2.80
61595;BMP280;47397;48.194;11.632;2023-04-03T02:11:20;96509.00;;;2.88
61595;BMP280;47397;48.194;11.632;2023-04-03T02:12:21;96505.78;;;2.97
61595;BMP280;47397;48.194;11.632;2023-04-03T02:13:21;96512.63;;;3.05
61595;BMP280;47397;48.194;11.632;2023-04-03T02:14:21;96500.88;;;3.03
61595;BMP280;47397;48.194;11.632;2023-04-03T02:15:22;96501.72;;;3.03
61595;BMP280;47397;48.194;11.632;2023-04-03T02:16:22;96507.41;;;2.95
61595;BMP280;47397;48.194;11.632;2023-04-03T02:17:24;96499.19;;;3.02
61595;BMP280;47397;48.194;11.632;2023-04-03T02:18:24;96508.84;;;2.79
61595;BMP280;47397;48.194;11.632;2023-04-03T02:19:25;96508.38;;;3.01
61595;BMP280;47397;48.194;11.632;2023-04-03T02:20:25;96506.66;;;2.99
61595;BMP280;47397;48.194;11.632;2023-04-03T02:21:26;96510.16;;;3.08
61595;BMP280;47397;48.194;11.632;2023-04-03T02:22:26;96509.31;;;3.08
61595;BMP280;47397;48.194;11.632;2023-04-03T02:23:27;96512.66;;;3.07
61595;BMP280;47397;48.194;11.632;2023-04-03T02:24:27;96504.97;;;2.98
61595;BMP280;47397;48.194;11.632;2023-04-03T02:25:27;96505.03;;;3.01
61595;BMP280;47397;48.194;11.632;2023-04-03T02:26:28;96499.97;;;2.99
61595;BMP280;47397;48.194;11.632;2023-04-03T02:27:28;96500.81;;;2.98
61595;BMP280;47397;48.194;11.632;2023-04-03T02:28:29;96497.59;;;3.07
61595;BMP280;47397;48.194;11.632;2023-04-03T02:29:29;96497.59;;;3.08
61595;BMP280;47397;48.194;11.632;2023-04-03T02:30:29;96497.69;;;3.14
61595;BMP280;47397;48.194;11.632;2023-04-03T02:31:30;96498.50;;;3.13
61595;BMP280;47397;48.194;11.632;2023-04-03T02:32:32;96501.91;;;3.17
61595;BMP280;47397;48.194;11.632;2023-04-03T02:33:33;96499.16;;;2.99
61595;BMP280;47397;48.194;11.632;2023-04-03T02:34:33;96498.13;;;2.89
61595;BMP280;47397;48.194;11.632;2023-04-03T02:35:34;96493.81;;;2.80
61595;BMP280;47397;48.194;11.632;2023-04-03T02:36:34;96502.28;;;2.87
61595;BMP280;47397;48.194;11.632;2023-04-03T02:37:35;96500.84;;;3.00
61595;BMP280;47397;48.194;11.632;2023-04-03T02:38:35;96494.13;;;2.99
61595;BMP280;47397;48.194;11.632;2023-04-03T02:39:36;96500.97;;;3.09
61595;BMP280;47397;48.194;11.632;2023-04-03T02:40:37;96499.41;;;3.19
61595;BMP280;47397;48.194;11.632;2023-04-03T02:41:37;96494.22;;;3.06
61595;BMP280;47397;48.194;11.632;2023-04-03T02:42:38;96498.50;;;3.13
61595;BMP280;47397;48.194;11.632;2023-04-03T02:43:38;96498.56;;;3.17
61595;BMP280;47397;48.194;11.632;2023-04-03T02:44:39;96501.09;;;3.20
61595;BMP280;47397;48.194;11.632;2023-04-03T02:45:39;96496.88;;;3.16
61595;BMP280;47397;48.194;11.632;2023-04-03T02:46:40;96503.50;;;3.10
61595;BMP280;47397;48.194;11.632;2023-04-03T02:47:42;96497.69;;;3.14
61595;BMP280;47397;48.194;11.632;2023-04-03T02:48:42;96502.63;;;3.08
61595;BMP280;47397;48.194;11.632;2023-04-03T02:49:42;96502.63;;;3.08
61595;BMP280;47397;48.194;11.632;2023-04-03T02:50:43;96512.78;;;3.16
61595;BMP280;47397;48.194;11.632;2023-04-03T02:51:43;96500.19;;;3.14
61595;BMP280;47397;48.194;11.632;2023-04-03T02:52:44;96497.69;;;3.14
61595;BMP280;47397;48.194;11.632;2023-04-03T02:53:44;96505.25;;;3.16
61595;BMP280;47397;48.194;11.632;2023-04-03T02:54:45;96499.28;;;3.09
61595;BMP280;47397;48.194;11.632;2023-04-03T02:55:45;96503.50;;;3.10
61595;BMP280;47397;48.194;11.632;2023-04-03T02:56:46;96500.13;;;3.10
61595;BMP280;47397;48.194;11.632;2023-04-03T02:57:46;96504.28;;;3.08
61595;BMP280;47397;48.194;11.632;2023-04-03T02:58:47;96497.59;;;3.08
61595;BMP280;47397;48.194;11.632;2023-04-03T02:59:47;96508.59;;;3.15
61595;BMP280;47397;48.194;11.632;2023-04-03T03:00:47;96500.19;;;3.14
61595;BMP280;47397;48.194;11.632;2023-04-03T03:01:51;96497.59;;;3.08
61595;BMP280;47397;48.194;11.632;2023-04-03T03:02:53;96506.81;;;3.09
61595;BMP280;47397;48.194;11.632;2023-04-03T03:03:53;96504.25;;;3.05
61595;BMP280;47397;48.194;11.632;2023-04-03T03:04:54;96506.75;;;3.03
61595;BMP280;47397;48.194;11.632;2023-04-03T03:06:01;96504.28;;;3.06
61595;BMP280;47397;48.194;11.632;2023-04-03T03:07:02;96502.66;;;3.11
61595;BMP280;47397;48.194;11.632;2023-04-03T03:08:03;96505.06;;;3.02
61595;BMP280;47397;48.194;11.632;2023-04-03T03:09:04;96505.91;;;3.04
61595;BMP280;47397;48.194;11.632;2023-04-03T03:10:05;96501.81;;;3.11
61595;BMP280;47397;48.194;11.632;2023-04-03T03:11:06;96506.03;;;3.12
61595;BMP280;47397;48.194;11.632;2023-04-03T03:12:06;96507.34;;;2.90
61595;BMP280;47397;48.194;11.632;2023-04-03T03:13:07;96504.28;;;3.06
61595;BMP280;47397;48.194;11.632;2023-04-03T03:14:07;96508.41;;;3.03
61595;BMP280;47397;48.194;11.632;2023-04-03T03:15:08;96504.97;;;2.98
61595;BMP280;47397;48.194;11.632;2023-04-03T03:16:09;96510.06;;;3.02
61595;BMP280;47397;48.194;11.632;2023-04-03T03:17:09;96510.13;;;3.07
61595;BMP280;47397;48.194;11.632;2023-04-03T03:18:11;96508.38;;;3.00
61595;BMP280;47397;48.194;11.632;2023-04-03T03:19:12;96513.13;;;2.85
61595;BMP280;47397;48.194;11.632;2023-04-03T03:20:12;96501.50;;;2.91
61595;BMP280;47397;48.194;11.632;2023-04-03T03:21:13;96506.63;;;2.97
61595;BMP280;47397;48.194;11.632;2023-04-03T03:22:14;96508.38;;;3.00
61595;BMP280;47397;48.194;11.632;2023-04-03T03:23:14;96506.69;;;3.00
61595;BMP280;47397;48.194;11.632;2023-04-03T03:24:15;96507.84;;;2.68
61595;BMP280;47397;48.194;11.632;2023-04-03T03:25:15;96509.06;;;2.93
61595;BMP280;47397;48.194;11.632;2023-04-03T03:26:16;96505.00;;;2.99
61595;BMP280;47397;48.194;11.632;2023-04-03T03:27:16;96508.34;;;2.98
61595;BMP280;47397;48.194;11.632;2023-04-03T03:28:16;96505.91;;;3.04
61595;BMP280;47397;48.194;11.632;2023-04-03T03:29:17;96505.84;;;3.00
61595;BMP280;47397;48.194;11.632;2023-04-03T03:30:17;96509.22;;;3.00
61595;BMP280;47397;48.194;11.632;2023-04-03T03:31:18;96510.25;;;3.14
61595;BMP280;47397;48.194;11.632;2023-04-03T03:32:18;96511.00;;;3.07
61595;BMP280;47397;48.194;11.632;2023-04-03T03:33:20;96511.06;;;3.12
61595;BMP280;47397;48.194;11.632;2023-04-03T03:34:21;96510.66;;;2.88
61595;BMP280;47397;48.194;11.632;2023-04-03T03:35:22;96510.47;;;2.75
61595;BMP280;47397;48.194;11.632;2023-04-03T03:36:23;96510.75;;;2.94
61595;BMP280;47397;48.194;11.632;2023-04-03T03:37:23;96510.06;;;3.02
61595;BMP280;47397;48.194;11.632;2023-04-03T03:38:24;96505.69;;;2.91
61595;BMP280;47397;48.194;11.632;2023-04-03T03:39:24;96509.97;;;2.96
61595;BMP280;47397;48.194;11.632;2023-04-03T03:40:25;96506.81;;;3.08
61595;BMP280;47397;48.194;11.632;2023-04-03T03:41:25;96509.09;;;2.96
61595;BMP280;47397;48.194;11.632;2023-04-03T03:42:25;96511.63;;;2.97
61595;BMP280;47397;48.194;11.632;2023-04-03T03:43:27;96508.44;;;3.04
61595;BMP280;47397;48.194;11.632;2023-04-03T03:44:28;96513.53;;;3.09
61595;BMP280;47397;48.194;11.632;2023-04-03T03:45:28;96505.13;;;3.07
61595;BMP280;47397;48.194;11.632;2023-04-03T03:46:29;96506.00;;;3.10
61595;BMP280;47397;48.194;11.632;2023-04-03T03:47:29;96508.50;;;3.10
61595;BMP280;47397;48.194;11.632;2023-04-03T03:48:31;96501.81;;;3.11
61595;BMP280;47397;48.194;11.632;2023-04-03T03:49:31;96510.34;;;3.21
61595;BMP280;47397;48.194;11.632;2023-04-03T03:50:32;96506.94;;;3.17
61595;BMP280;47397;48.194;11.632;2023-04-03T03:51:33;96509.13;;;2.97
61595;BMP280;47397;48.194;11.632;2023-04-03T03:52:33;96510.94;;;3.04
61595;BMP280;47397;48.194;11.632;2023-04-03T03:53:34;96505.13;;;3.07
61595;BMP280;47397;48.194;11.632;2023-04-03T03:54:34;96502.66;;;3.11
61595;BMP280;47397;48.194;11.632;2023-04-03T03:55:35;96506.97;;;3.20
61595;BMP280;47397;48.194;11.632;2023-04-03T03:56:35;96506.19;;;3.24
61595;BMP280;47397;48.194;11.632;2023-04-03T03:57:36;96507.00;;;3.22
61595;BMP280;47397;48.194;11.632;2023-04-03T03:58:36;96506.72;;;3.02
61595;BMP280;47397;48.194;11.632;2023-04-03T03:59:37;96509.91;;;2.93
61595;BMP280;47397;48.194;11.632;2023-04-03T04:00:37;96506.44;;;2.85
61595;BMP280;47397;48.194;11.632;2023-04-03T04:01:38;96508.13;;;2.86
61595;BMP280;47397;48.194;11.632;2023-04-03T04:02:38;96505.75;;;2.95
61595;BMP280;47397;48.194;11.632;2023-04-03T04:03:40;96506.72;;;3.02
61595;BMP280;47397;48.194;11.632;2023-04-03T04:04:40;96503.44;;;3.06
61595;BMP280;47397;48.194;11.632;2023-04-03T04:05:41;96506.78;;;3.06
61595;BMP280;47397;48.194;11.632;2023-04-03T04:06:41;96515.09;;;3.02
61595;BMP280;47397;48.194;11.632;2023-04-03T04:07:42;96504.28;;;3.08
61595;BMP280;47397;48.194;11.632;2023-04-03T04:08:42;96498.19;;;2.94
61595;BMP280;47397;48.194;11.632;2023-04-03T04:09:43;96506.63;;;2.97
61595;BMP280;47397;48.194;11.632;2023-04-03T04:10:43;96513.44;;;3.04
61595;BMP280;47397;48.194;11.632;2023-04-03T04:11:44;96500.03;;;3.02
61595;BMP280;47397;48.194;11.632;2023-04-03T04:12:44;96512.19;;;2.78
61595;BMP280;47397;48.194;11.632;2023-04-03T04:13:44;96508.34;;;2.98
61595;BMP280;47397;48.194;11.632;2023-04-03T04:14:45;96513.06;;;2.80
61595;BMP280;47397;48.194;11.632;2023-04-03T04:15:45;96506.69;;;3.00
61595;BMP280;47397;48.194;11.632;2023-04-03T04:16:46;96507.25;;;2.84
61595;BMP280;47397;48.194;11.632;2023-04-03T04:17:46;96500.06;;;3.04
61595;BMP280;47397;48.194;11.632;2023-04-03T04:18:48;96510.00;;;2.98
61595;BMP280;47397;48.194;11.632;2023-04-03T04:19:49;96507.53;;;2.99
61595;BMP280;47397;48.194;11.632;2023-04-03T04:20:49;96501.75;;;3.06
61595;BMP280;47397;48.194;11.632;2023-04-03T04:21:50;96508.38;;;3.00
61595;BMP280;47397;48.194;11.632;2023-04-03T04:22:50;96514.06;;;2.41
61595;BMP280;47397;48.194;11.632;2023-04-03T04:23:51;96520.13;;;2.54
61595;BMP280;47397;48.194;11.632;2023-04-03T04:24:51;96511.38;;;2.79
61595;BMP280;47397;48.194;11.632;2023-04-03T04:25:52;96507.28;;;2.86
61595;BMP280;47397;48.194;11.632;2023-04-03T04:26:52;96516.47;;;2.85
61595;BMP280;47397;48.194;11.632;2023-04-03T04:27:53;96513.25;;;2.94
61595;BMP280;47397;48.194;11.632;2023-04-03T04:28:53;96510.06;;;3.02
61595;BMP280;47397;48.194;11.632;2023-04-03T04:29:54;96509.22;;;3.00
61595;BMP280;47397;48.194;11.632;2023-04-03T04:30:54;96514.88;;;2.90
61595;BMP280;47397;48.194;11.632;2023-04-03T04:31:54;96517.31;;;2.86
61595;BMP280;47397;48.194;11.632;2023-04-03T04:32:55;96510.09;;;3.04
61595;BMP280;47397;48.194;11.632;2023-04-03T04:33:57;96513.41;;;3.01
61595;BMP280;47397;48.194;11.632;2023-04-03T04:34:57;96512.41;;;2.93
61595;BMP280;47397;48.194;11.632;2023-04-03T04:35:57;96514.94;;;2.93
61595;BMP280;47397;48.194;11.632;2023-04-03T04:36:58;96515.91;;;3.00
61595;BMP280;47397;48.194;11.632;2023-04-03T04:37:58;96515.06;;;3.01
61595;BMP280;47397;48.194;11.632;2023-04-03T04:38:59;96521.56;;;2.88
61595;BMP280;47397;48.194;11.632;2023-04-03T04:39:59;96523.66;;;2.62
61595;BMP280;47397;48.194;11.632;2023-04-03T04:41:00;96517.38;;;2.89
61595;BMP280;47397;48.194;11.632;2023-04-03T04:42:00;96516.66;;;2.97
61595;BMP280;47397;48.194;11.632;2023-04-03T04:43:01;96519.28;;;3.02
61595;BMP280;47397;48.194;11.632;2023-04-03T04:44:01;96518.44;;;3.01
61595;BMP280;47397;48.194;11.632;2023-04-03T04:45:02;96523.31;;;2.94
61595;BMP280;47397;48.194;11.632;2023-04-03T04:46:04;96524.84;;;2.84
61595;BMP280;47397;48.194;11.632;2023-04-03T04:47:05;96522.31;;;2.84
61595;BMP280;47397;48.194;11.632;2023-04-03T04:48:05;96528.38;;;2.97
61595;BMP280;47397;48.194;11.632;2023-04-03T04:49:07;96523.50;;;3.04
61595;BMP280;47397;48.194;11.632;2023-04-03T04:50:09;96529.13;;;2.91
61595;BMP280;47397;48.194;11.632;2023-04-03T04:51:09;96524.31;;;3.03
61595;BMP280;47397;48.194;11.632;2023-04-03T04:52:10;96525.94;;;3.00
61595;BMP280;47397;48.194;11.632;2023-04-03T04:53:11;96528.25;;;2.89
61595;BMP280;47397;48.194;11.632;2023-04-03T04:54:11;96527.59;;;2.98
61595;BMP280;47397;48.194;11.632;2023-04-03T04:55:13;96528.38;;;2.97
61595;BMP280;47397;48.194;11.632;2023-04-03T04:56:14;96522.47;;;2.93
61595;BMP280;47397;48.194;11.632;2023-04-03T04:57:14;96526.72;;;2.97
61595;BMP280;47397;48.194;11.632;2023-04-03T04:58:14;96525.53;;;2.75
61595;BMP280;47397;48.194;11.632;2023-04-03T04:59:15;96521.56;;;2.88
61595;BMP280;47397;48.194;11.632;2023-04-03T05:00:16;96521.50;;;2.85
61595;BMP280;47397;48.194;11.632;2023-04-03T05:01:17;96530.78;;;2.89
61595;BMP280;47397;48.194;11.632;2023-04-03T05:02:17;96530.69;;;2.85
61595;BMP280;47397;48.194;11.632;2023-04-03T05:03:18;96538.97;;;2.79
61595;BMP280;47397;48.194;11.632;2023-04-03T05:04:20;96528.94;;;2.79
61595;BMP280;47397;48.194;11.632;2023-04-03T05:05:20;96533.97;;;2.79
61595;BMP280;47397;48.194;11.632;2023-04-03T05:06:20;96530.72;;;2.86
61595;BMP280;47397;48.194;11.632;2023-04-03T05:07:21;96531.53;;;2.83
61595;BMP280;47397;48.194;11.632;2023-04-03T05:08:22;96538.25;;;2.86
61595;BMP280;47397;48.194;11.632;2023-04-03T05:09:22;96533.22;;;2.86
61595;BMP280;47397;48.194;11.632;2023-04-03T05:10:22;96529.09;;;2.88
61595;BMP280;47397;48.194;11.632;2023-04-03T05:11:23;96534.66;;;2.70
61595;BMP280;47397;48.194;11.632;2023-04-03T05:12:24;96535.50;;;2.71
61595;BMP280;47397;48.194;11.632;2023-04-03T05:13:24;96538.09;;;2.75
61595;BMP280;47397;48.194;11.632;2023-04-03T05:14:25;96534.81;;;2.81
61595;BMP280;47397;48.194;11.632;2023-04-03T05:15:25;96534.97;;;2.90
61595;BMP280;47397;48.194;11.632;2023-04-03T05:16:26;96536.66;;;2.91
61595;BMP280;47397;48.194;11.632;2023-04-03T05:17:26;96535.97;;;2.98
61595;BMP280;47397;48.194;11.632;2023-04-03T05:18:27;96534.22;;;2.96
61595;BMP280;47397;48.194;11.632;2023-04-03T05:19:29;96542.53;;;2.92
61595;BMP280;47397;48.194;11.632;2023-04-03T05:20:29;96529.94;;;2.90
61595;BMP280;47397;48.194;11.632;2023-04-03T05:21:29;96540.06;;;2.95
61595;BMP280;47397;48.194;11.632;2023-04-03T05:22:30;96531.63;;;2.91
61595;BMP280;47397;48.194;11.632;2023-04-03T05:23:31;96536.56;;;2.85
61595;BMP280;47397;48.194;11.632;2023-04-03T05:24:31;96539.13;;;2.88
61595;BMP280;47397;48.194;11.632;2023-04-03T05:25:32;96538.97;;;2.79
61595;BMP280;47397;48.194;11.632;2023-04-03T05:26:32;96533.22;;;2.86
61595;BMP280;47397;48.194;11.632;2023-04-03T05:27:33;96539.81;;;2.78
61595;BMP280;47397;48.194;11.632;2023-04-03T05:28:34;96537.22;;;2.73
61595;BMP280;47397;48.194;11.632;2023-04-03T05:29:35;96544.06;;;2.83
61595;BMP280;47397;48.194;11.632;2023-04-03T05:30:35;96534.09;;;2.88
61595;BMP280;47397;48.194;11.632;2023-04-03T05:31:36;96535.78;;;2.88
61595;BMP280;47397;48.194;11.632;2023-04-03T05:32:36;96535.78;;;2.89
61595;BMP280;47397;48.194;11.632;2023-04-03T05:33:37;96542.56;;;2.95
61595;BMP280;47397;48.194;11.632;2023-04-03T05:34:38;96543.50;;;2.98
61595;BMP280;47397;48.194;11.632;2023-04-03T05:35:39;96541.00;;;3.00
61595;BMP280;47397;48.194;11.632;2023-04-03T05:36:39;96543.31;;;2.89
61595;BMP280;47397;48.194;11.632;2023-04-03T05:37:40;96541.69;;;2.91
61595;BMP280;47397;48.194;11.632;2023-04-03T05:38:41;96540.03;;;2.93
61595;BMP280;47397;48.194;11.632;2023-04-03T05:39:41;96546.81;;;2.97
61595;BMP280;47397;48.194;11.632;2023-04-03T05:40:41;96545.19;;;2.99
61595;BMP280;47397;48.194;11.632;2023-04-03T05:41:42;96541.84;;;3.00
61595;BMP280;47397;48.194;11.632;2023-04-03T05:42:42;96543.41;;;2.94
61595;BMP280;47397;48.194;11.632;2023-04-03T05:43:43;96543.56;;;3.03
61595;BMP280;47397;48.194;11.632;2023-04-03T05:44:43;96544.19;;;2.91
61595;BMP280;47397;48.194;11.632;2023-04-03T05:45:44;96547.56;;;2.93
61595;BMP280;47397;48.194;11.632;2023-04-03T05:46:44;96542.72;;;3.02
61595;BMP280;47397;48.194;11.632;2023-04-03T05:47:45;96545.22;;;3.01
61595;BMP280;47397;48.194;11.632;2023-04-03T05:48:45;96541.06;;;3.04
61595;BMP280;47397;48.194;11.632;2023-04-03T05:49:47;96547.94;;;3.16
61595;BMP280;47397;48.194;11.632;2023-04-03T05:50:48;96545.09;;;2.95
61595;BMP280;47397;48.194;11.632;2023-04-03T05:51:48;96550.81;;;2.86
61595;BMP280;47397;48.194;11.632;2023-04-03T05:52:50;96547.72;;;3.01
61595;BMP280;47397;48.194;11.632;2023-04-03T05:53:56;96549.47;;;3.05